Time,TemperatureF,DewpointF,PressureIn,WindDirection,WindDirectionDegrees,WindSpeedMPH,WindSpeedGustMPH,Humidity,HourlyPrecipIn,Conditions,Clouds,dailyrainin,SoftwareType,DateUTC
2013-08-13 00:01:00,78.8,73.9,29.94,North,0,0.0,0.0,85,0.00,CLR,CLR,0.00,WeatherDisplay:10.37,2013-08-13 04:01:00,
2013-08-13 00:02:00,78.8,73.9,29.94,North,0,0.0,0.0,85,0.00,CLR,CLR,0.00,WeatherDisplay:10.37,2013-08-13 04:02:00,
2013-08-13 00:03:00,78.6,74.1,29.94,North,0,0.0,0.0,86,0.00,CLR,CLR,0.00,WeatherDisplay:10.37,2013-08-13 04:03:00,
2013-08-13 00:08:00,78.6,74.1,29.94,North,0,0.0,0.0,86,0.00,CLR,CLR,0.00,WeatherDisplay:10.37,2013-08-13 04:08:00,
2013-08-13 00:13:00,78.6,74.1,29.94,North,0,0.0,0.0,86,0.00,CLR,CLR,0.00,WeatherDisplay:10.37,2013-08-13 04:13:00,
2013-08-13 00:19:00,78.8,74.3,29.94,North,0,0.0,0.0,86,0.00,CLR,CLR,0.00,WeatherDisplay:10.37,2013-08-13 04:19:00,
2013-08-13 00:24:00,78.8,74.3,29.94,North,0,0.0,0.0,86,0.00,CLR,CLR,0.00,WeatherDisplay:10.37,2013-08-13 04:24:00,
2013-08-13 00:29:00,78.6,74.4,29.94,North,0,0.0,0.0,87,0.00,CLR,CLR,0.00,WeatherDisplay:10.37,2013-08-13 04:29:00,
2013-08-13 00:34:00,78.6,74.4,29.94,North,0,0.0,0.0,87,0.00,CLR,CLR,0.00,WeatherDisplay:10.37,2013-08-13 04:34:00,
2013-08-13 00:39:00,78.6,74.4,29.94,North,0,0.0,0.0,87,0.00,CLR,CLR,0.00,WeatherDisplay:10.37,2013-08-13 04:39:00,
2013-08-13 00:44:00,78.6,74.8,29.94,North,0,0.0,0.0,88,0.00,CLR,CLR,0.00,WeatherDisplay:10.37,2013-08-13 04:44:00,
2013-08-13 00:49:00,78.6,74.8,29.94,North,0,0.0,0.0,88,0.00,CLR,CLR,0.00,WeatherDisplay:10.37,2013-08-13 04:49:00,
2013-08-13 00:55:00,78.6,75.1,29.94,North,0,0.0,0.0,89,0.00,CLR,CLR,0.00,WeatherDisplay:10.37,2013-08-13 04:55:00,
2013-08-13 01:00:00,78.8,74.9,29.94,North,0,0.0,0.0,88,0.00,CLR,CLR,0.00,WeatherDisplay:10.37,2013-08-13 05:00:00,
2013-08-13 01:05:00,78.8,75.3,29.94,North,0,0.0,0.0,89,0.00,CLR,CLR,0.00,WeatherDisplay:10.37,2013-08-13 05:05:00,
2013-08-13 01:10:00,79.0,75.5,29.94,North,0,0.0,0.0,89,0.00,CLR,CLR,0.00,WeatherDisplay:10.37,2013-08-13 05:10:00,
2013-08-13 01:15:00,79.0,75.8,29.94,North,0,0.0,0.0,90,0.00,CLR,CLR,0.00,WeatherDisplay:10.37,2013-08-13 05:15:00,
2013-08-13 01:21:00,79.2,76.0,29.94,North,0,0.0,0.0,90,0.00,CLR,CLR,0.00,WeatherDisplay:10.37,2013-08-13 05:21:00,
2013-08-13 01:26:00,79.3,76.1,29.94,North,0,0.0,0.0,90,0.00,CLR,CLR,0.00,WeatherDisplay:10.37,2013-08-13 05:26:00,
2013-08-13 01:31:00,79.3,76.5,29.94,North,0,0.0,0.0,91,0.00,CLR,CLR,0.00,WeatherDisplay:10.37,2013-08-13 05:31:00,
2013-08-13 01:36:00,79.7,76.8,29.94,North,0,0.0,0.0,91,0.00,CLR,CLR,0.00,WeatherDisplay:10.37,2013-08-13 05:36:00,
2013-08-13 01:41:00,79.7,76.8,29.91,North,0,0.0,0.0,91,0.00,CLR,CLR,0.00,WeatherDisplay:10.37,2013-08-13 05:41:00,
2013-08-13 01:46:00,80.1,77.5,29.91,North,0,0.0,0.0,92,0.00,CLR,CLR,0.00,WeatherDisplay:10.37,2013-08-13 05:46:00,
2013-08-13 01:51:00,80.2,77.7,29.91,North,0,0.0,0.0,92,0.00,CLR,CLR,0.00,WeatherDisplay:10.37,2013-08-13 05:51:00,
2013-08-13 01:56:00,80.4,77.9,29.91,North,0,0.0,0.0,92,0.00,CLR,CLR,0.00,WeatherDisplay:10.37,2013-08-13 05:56:00,
2013-08-13 02:01:00,80.4,77.9,29.91,North,0,0.0,0.0,92,0.00,CLR,CLR,0.00,WeatherDisplay:10.37,2013-08-13 06:01:00,
2013-08-13 02:06:00,80.4,78.2,29.91,North,0,0.0,0.0,93,0.00,CLR,CLR,0.00,WeatherDisplay:10.37,2013-08-13 06:06:00,
2013-08-13 02:12:00,80.4,78.2,29.91,North,0,0.0,0.0,93,0.00,CLR,CLR,0.00,WeatherDisplay:10.37,2013-08-13 06:12:00,
2013-08-13 02:17:00,80.4,78.2,29.91,North,0,0.0,0.0,93,0.00,CLR,CLR,0.00,WeatherDisplay:10.37,2013-08-13 06:17:00,
2013-08-13 02:22:00,80.4,78.2,29.91,North,0,0.0,0.0,93,0.00,CLR,CLR,0.00,WeatherDisplay:10.37,2013-08-13 06:22:00,
2013-08-13 02:27:00,80.4,78.2,29.91,North,0,0.0,0.0,93,0.00,CLR,CLR,0.00,WeatherDisplay:10.37,2013-08-13 06:27:00,
2013-08-13 02:32:00,80.6,78.4,29.91,North,0,0.0,0.0,93,0.00,CLR,CLR,0.00,WeatherDisplay:10.37,2013-08-13 06:32:00,
2013-08-13 02:38:00,80.6,78.4,29.91,North,0,0.0,0.0,93,0.00,CLR,CLR,0.00,WeatherDisplay:10.37,2013-08-13 06:38:00,
2013-08-13 02:43:00,80.6,78.4,29.91,North,0,0.0,0.0,93,0.00,CLR,CLR,0.00,WeatherDisplay:10.37,2013-08-13 06:43:00,
2013-08-13 02:48:00,80.6,78.4,29.91,North,0,0.0,0.0,93,0.00,CLR,CLR,0.00,WeatherDisplay:10.37,2013-08-13 06:48:00,
2013-08-13 02:53:00,80.6,78.4,29.91,North,0,0.0,0.0,93,0.00,CLR,CLR,0.00,WeatherDisplay:10.37,2013-08-13 06:53:00,
2013-08-13 02:58:00,80.6,78.4,29.91,North,0,0.0,0.0,93,0.00,CLR,CLR,0.00,WeatherDisplay:10.37,2013-08-13 06:58:00,
2013-08-13 03:04:00,80.6,78.4,29.91,North,0,0.0,0.0,93,0.00,CLR,CLR,0.00,WeatherDisplay:10.37,2013-08-13 07:04:00,
2013-08-13 03:09:00,80.6,78.4,29.91,North,0,0.0,0.0,93,0.00,CLR,CLR,0.00,WeatherDisplay:10.37,2013-08-13 07:09:00,
2013-08-13 03:14:00,80.6,78.4,29.91,North,0,0.0,0.0,93,0.00,CLR,CLR,0.00,WeatherDisplay:10.37,2013-08-13 07:14:00,
2013-08-13 03:19:00,80.6,78.4,29.91,North,0,0.0,0.0,93,0.00,CLR,CLR,0.00,WeatherDisplay:10.37,2013-08-13 07:19:00,
2013-08-13 03:24:00,80.6,78.4,29.91,North,0,0.0,0.0,93,0.00,CLR,CLR,0.00,WeatherDisplay:10.37,2013-08-13 07:24:00,
2013-08-13 03:29:00,80.2,77.0,29.91,North,0,0.0,0.0,90,0.00,CLR,CLR,0.00,WeatherDisplay:10.37,2013-08-13 07:29:00,
2013-08-13 03:34:00,77.5,74.4,29.91,North,0,0.0,0.0,90,0.00,CLR,CLR,0.00,WeatherDisplay:10.37,2013-08-13 07:34:00,
2013-08-13 03:39:00,77.2,74.3,29.91,North,0,0.0,0.0,91,0.00,CLR,CLR,0.00,WeatherDisplay:10.37,2013-08-13 07:39:00,
2013-08-13 03:45:00,76.6,74.8,29.91,North,0,0.0,0.0,94,0.00,CLR,CLR,0.00,WeatherDisplay:10.37,2013-08-13 07:45:00,
2013-08-13 03:50:00,75.9,74.4,29.91,North,0,0.0,0.0,95,0.00,CLR,CLR,0.00,WeatherDisplay:10.37,2013-08-13 07:50:00,
2013-08-13 03:55:00,74.7,73.1,29.91,North,0,0.0,0.0,95,0.00,CLR,CLR,0.00,WeatherDisplay:10.37,2013-08-13 07:55:00,
2013-08-13 04:00:00,73.6,71.7,29.91,North,0,0.0,0.0,94,0.00,CLR,CLR,0.00,WeatherDisplay:10.37,2013-08-13 08:00:00,
2013-08-13 04:06:00,73.9,72.4,29.91,North,0,0.0,0.0,95,0.00,CLR,CLR,0.00,WeatherDisplay:10.37,2013-08-13 08:06:00,
2013-08-13 04:11:00,75.2,74.0,29.94,North,0,0.0,0.0,96,0.00,CLR,CLR,0.00,WeatherDisplay:10.37,2013-08-13 08:11:00,
2013-08-13 04:16:00,74.7,73.4,29.94,North,0,0.0,0.0,96,0.00,CLR,CLR,0.00,WeatherDisplay:10.37,2013-08-13 08:16:00,
2013-08-13 04:21:00,74.3,73.4,29.94,North,0,0.0,0.0,97,0.00,CLR,CLR,0.00,WeatherDisplay:10.37,2013-08-13 08:21:00,
2013-08-13 04:26:00,73.9,73.0,29.91,North,0,0.0,0.0,97,0.00,CLR,CLR,0.00,WeatherDisplay:10.37,2013-08-13 08:26:00,
2013-08-13 04:31:00,73.8,72.9,29.91,North,0,0.0,0.0,97,0.00,CLR,CLR,0.00,WeatherDisplay:10.37,2013-08-13 08:31:00,
2013-08-13 04:37:00,73.6,72.7,29.91,North,0,0.0,0.0,97,0.00,CLR,CLR,0.00,WeatherDisplay:10.37,2013-08-13 08:37:00,
2013-08-13 04:42:00,73.4,72.5,29.91,North,0,0.0,0.0,97,0.00,CLR,CLR,0.00,WeatherDisplay:10.37,2013-08-13 08:42:00,
2013-08-13 04:47:00,73.6,72.7,29.91,North,0,0.0,0.0,97,0.00,CLR,CLR,0.00,WeatherDisplay:10.37,2013-08-13 08:47:00,
2013-08-13 04:52:00,73.6,72.7,29.91,North,0,0.0,0.0,97,0.00,CLR,CLR,0.00,WeatherDisplay:10.37,2013-08-13 08:52:00,
2013-08-13 04:58:00,73.9,73.0,29.91,North,0,0.0,0.0,97,0.00,CLR,CLR,0.00,WeatherDisplay:10.37,2013-08-13 08:58:00,
2013-08-13 05:03:00,73.9,73.0,29.91,North,0,0.0,0.0,97,0.00,CLR,CLR,0.00,WeatherDisplay:10.37,2013-08-13 09:03:00,
2013-08-13 05:08:00,74.1,73.2,29.91,North,0,0.0,0.0,97,0.00,CLR,CLR,0.00,WeatherDisplay:10.37,2013-08-13 09:08:00,
2013-08-13 05:13:00,74.3,73.4,29.91,North,0,0.0,0.0,97,0.00,CLR,CLR,0.00,WeatherDisplay:10.37,2013-08-13 09:13:00,
2013-08-13 05:18:00,74.5,73.6,29.91,North,0,0.0,0.0,97,0.00,CLR,CLR,0.00,WeatherDisplay:10.37,2013-08-13 09:18:00,
2013-08-13 05:23:00,74.1,73.5,29.91,North,0,0.0,0.0,98,0.00,CLR,CLR,0.00,WeatherDisplay:10.37,2013-08-13 09:23:00,
2013-08-13 05:28:00,74.1,73.5,29.91,North,0,0.0,0.0,98,0.00,CLR,CLR,0.00,WeatherDisplay:10.37,2013-08-13 09:28:00,
2013-08-13 05:33:00,73.9,73.3,29.91,North,0,0.0,0.0,98,0.00,CLR,CLR,0.00,WeatherDisplay:10.37,2013-08-13 09:33:00,
2013-08-13 05:38:00,73.9,73.3,29.91,North,0,0.0,0.0,98,0.00,CLR,CLR,0.00,WeatherDisplay:10.37,2013-08-13 09:38:00,
2013-08-13 05:43:00,73.9,73.3,29.91,North,0,0.0,0.0,98,0.00,CLR,CLR,0.00,WeatherDisplay:10.37,2013-08-13 09:43:00,
2013-08-13 05:49:00,73.9,73.3,29.91,North,0,0.0,0.0,98,0.00,CLR,CLR,0.00,WeatherDisplay:10.37,2013-08-13 09:49:00,
2013-08-13 05:54:00,73.9,73.3,29.91,North,0,0.0,0.0,98,0.00,CLR,CLR,0.00,WeatherDisplay:10.37,2013-08-13 09:54:00,
2013-08-13 05:59:00,73.9,73.3,29.91,North,0,0.0,0.0,98,0.00,CLR,CLR,0.00,WeatherDisplay:10.37,2013-08-13 09:59:00,
2013-08-13 06:04:00,73.9,73.3,29.91,North,0,0.0,0.0,98,0.00,CLR,CLR,0.00,WeatherDisplay:10.37,2013-08-13 10:04:00,
2013-08-13 06:09:00,73.9,73.3,29.91,North,0,0.0,0.0,98,0.00,CLR,CLR,0.00,WeatherDisplay:10.37,2013-08-13 10:09:00,
2013-08-13 06:15:00,74.1,73.5,29.91,North,0,0.0,0.0,98,0.00,CLR,CLR,0.00,WeatherDisplay:10.37,2013-08-13 10:15:00,
2013-08-13 06:20:00,74.1,73.5,29.91,North,0,0.0,0.0,98,0.00,CLR,CLR,0.00,WeatherDisplay:10.37,2013-08-13 10:20:00,
2013-08-13 06:25:00,73.8,73.2,29.91,North,0,0.0,0.0,98,0.00,CLR,CLR,0.00,WeatherDisplay:10.37,2013-08-13 10:25:00,
2013-08-13 06:30:00,73.8,73.2,29.91,North,0,0.0,0.0,98,0.00,CLR,CLR,0.00,WeatherDisplay:10.37,2013-08-13 10:30:00,
2013-08-13 06:35:00,73.6,73.0,29.91,North,0,0.0,0.0,98,0.00,CLR,CLR,0.00,WeatherDisplay:10.37,2013-08-13 10:35:00,
2013-08-13 06:41:00,73.6,73.0,29.91,North,0,0.0,0.0,98,0.00,CLR,CLR,0.00,WeatherDisplay:10.37,2013-08-13 10:41:00,
2013-08-13 06:46:00,73.8,73.2,29.91,North,0,0.0,0.0,98,0.00,CLR,CLR,0.00,WeatherDisplay:10.37,2013-08-13 10:46:00,
2013-08-13 06:51:00,73.8,73.2,29.91,North,0,0.0,0.0,98,0.00,CLR,CLR,0.00,WeatherDisplay:10.37,2013-08-13 10:51:00,
2013-08-13 06:56:00,73.8,73.2,29.91,North,0,0.0,0.0,98,0.00,CLR,CLR,0.00,WeatherDisplay:10.37,2013-08-13 10:56:00,
2013-08-13 07:01:00,73.8,73.2,29.91,North,0,0.0,0.0,98,0.00,CLR,CLR,0.00,WeatherDisplay:10.37,2013-08-13 11:01:00,
2013-08-13 07:07:00,73.8,73.2,29.91,North,0,0.0,0.0,98,0.00,CLR,CLR,0.00,WeatherDisplay:10.37,2013-08-13 11:07:00,
2013-08-13 07:12:00,73.8,73.2,29.91,North,0,0.0,0.0,98,0.00,CLR,CLR,0.00,WeatherDisplay:10.37,2013-08-13 11:12:00,
2013-08-13 07:17:00,73.8,73.2,29.91,North,0,0.0,0.0,98,0.00,CLR,CLR,0.00,WeatherDisplay:10.37,2013-08-13 11:17:00,
2013-08-13 07:22:00,73.9,73.3,29.91,North,0,0.0,0.0,98,0.00,CLR,CLR,0.00,WeatherDisplay:10.37,2013-08-13 11:22:00,
2013-08-13 07:27:00,73.9,73.3,29.91,North,0,0.0,0.0,98,0.00,CLR,CLR,0.00,WeatherDisplay:10.37,2013-08-13 11:27:00,
2013-08-13 07:32:00,74.1,73.5,29.91,North,0,0.0,0.0,98,0.00,CLR,CLR,0.00,WeatherDisplay:10.37,2013-08-13 11:32:00,
2013-08-13 07:38:00,74.3,73.7,29.91,North,0,0.0,0.0,98,0.00,CLR,CLR,0.00,WeatherDisplay:10.37,2013-08-13 11:38:00,
2013-08-13 07:43:00,74.5,73.9,29.91,North,0,0.0,0.0,98,0.00,CLR,CLR,0.00,WeatherDisplay:10.37,2013-08-13 11:43:00,
2013-08-13 07:48:00,74.7,74.1,29.91,North,0,0.0,0.0,98,0.00,CLR,CLR,0.00,WeatherDisplay:10.37,2013-08-13 11:48:00,
2013-08-13 07:53:00,74.8,74.2,29.91,North,0,0.0,0.0,98,0.00,CLR,CLR,0.00,WeatherDisplay:10.37,2013-08-13 11:53:00,
2013-08-13 07:58:00,75.4,74.8,29.88,North,0,0.0,0.0,98,0.00,CLR,CLR,0.00,WeatherDisplay:10.37,2013-08-13 11:58:00,
2013-08-13 08:04:00,75.6,75.0,29.88,North,0,0.0,0.0,98,0.00,CLR,CLR,0.00,WeatherDisplay:10.37,2013-08-13 12:04:00,
2013-08-13 08:09:00,75.7,75.1,29.91,North,0,0.0,0.0,98,0.00,CLR,CLR,0.00,WeatherDisplay:10.37,2013-08-13 12:09:00,
2013-08-13 08:14:00,75.9,75.3,29.91,North,0,0.0,0.0,98,0.00,CLR,CLR,0.00,WeatherDisplay:10.37,2013-08-13 12:14:00,
2013-08-13 08:19:00,76.3,75.7,29.91,North,0,0.0,0.0,98,0.00,CLR,CLR,0.00,WeatherDisplay:10.37,2013-08-13 12:19:00,
2013-08-13 08:24:00,76.3,75.7,29.91,North,0,0.0,0.0,98,0.00,CLR,CLR,0.00,WeatherDisplay:10.37,2013-08-13 12:24:00,
2013-08-13 08:29:00,76.8,76.2,29.91,North,0,0.0,0.0,98,0.00,CLR,CLR,0.00,WeatherDisplay:10.37,2013-08-13 12:29:00,
2013-08-13 08:34:00,77.5,76.6,29.91,North,0,0.0,0.0,97,0.00,CLR,CLR,0.00,WeatherDisplay:10.37,2013-08-13 12:34:00,
2013-08-13 08:39:00,78.4,77.5,29.91,North,0,0.0,0.0,97,0.00,CLR,CLR,0.00,WeatherDisplay:10.37,2013-08-13 12:39:00,
2013-08-13 08:45:00,79.0,78.1,29.91,North,0,0.0,0.0,97,0.00,CLR,CLR,0.00,WeatherDisplay:10.37,2013-08-13 12:45:00,
2013-08-13 08:50:00,79.7,78.8,29.91,North,0,0.0,0.0,97,0.00,CLR,CLR,0.00,WeatherDisplay:10.37,2013-08-13 12:50:00,
2013-08-13 08:55:00,80.4,79.5,29.88,North,0,0.0,0.0,97,0.00,CLR,CLR,0.00,WeatherDisplay:10.37,2013-08-13 12:55:00,
2013-08-13 09:00:00,80.6,79.4,29.88,North,0,0.0,0.0,96,0.00,CLR,CLR,0.00,WeatherDisplay:10.37,2013-08-13 13:00:00,
2013-08-13 09:05:00,80.4,79.2,29.88,North,0,0.0,0.0,96,0.00,CLR,CLR,0.00,WeatherDisplay:10.37,2013-08-13 13:05:00,
2013-08-13 09:10:00,80.6,79.4,29.88,North,0,0.0,0.0,96,0.00,CLR,CLR,0.00,WeatherDisplay:10.37,2013-08-13 13:10:00,
2013-08-13 09:15:00,80.6,79.4,29.88,North,0,0.0,0.0,96,0.00,CLR,CLR,0.00,WeatherDisplay:10.37,2013-08-13 13:15:00,
2013-08-13 09:20:00,80.2,79.0,29.88,North,0,0.0,0.0,96,0.00,CLR,CLR,0.00,WeatherDisplay:10.37,2013-08-13 13:20:00,
2013-08-13 09:25:00,81.1,79.9,29.88,North,0,0.0,0.0,96,0.00,CLR,CLR,0.00,WeatherDisplay:10.37,2013-08-13 13:25:00,
2013-08-13 09:31:00,81.7,80.4,29.88,North,0,0.0,0.0,96,0.00,CLR,CLR,0.00,WeatherDisplay:10.37,2013-08-13 13:31:00,
2013-08-13 09:36:00,81.5,80.2,29.88,North,0,0.0,0.0,96,0.00,CLR,CLR,0.00,WeatherDisplay:10.37,2013-08-13 13:36:00,
2013-08-13 09:41:00,81.9,80.6,29.88,North,0,0.0,0.0,96,0.00,CLR,CLR,0.00,WeatherDisplay:10.37,2013-08-13 13:41:00,
2013-08-13 09:46:00,82.6,81.0,29.88,North,0,0.0,0.0,95,0.00,CLR,CLR,0.00,WeatherDisplay:10.37,2013-08-13 13:46:00,
2013-08-13 09:51:00,82.4,80.8,29.88,North,0,0.0,0.0,95,0.00,CLR,CLR,0.00,WeatherDisplay:10.37,2013-08-13 13:51:00,
2013-08-13 09:56:00,82.9,81.4,29.88,North,0,0.0,0.0,95,0.00,CLR,CLR,0.00,WeatherDisplay:10.37,2013-08-13 13:56:00,
2013-08-13 10:01:00,82.8,80.9,29.88,North,0,0.0,0.0,94,0.00,CLR,CLR,0.00,WeatherDisplay:10.37,2013-08-13 14:01:00,
2013-08-13 10:06:00,83.1,81.2,29.88,North,0,0.0,0.0,94,0.00,CLR,CLR,0.00,WeatherDisplay:10.37,2013-08-13 14:06:00,
2013-08-13 10:11:00,83.7,81.7,29.88,North,0,0.0,0.0,94,0.00,CLR,CLR,0.00,WeatherDisplay:10.37,2013-08-13 14:11:00,
2013-08-13 10:17:00,83.7,81.7,29.88,North,0,0.0,0.0,94,0.00,CLR,CLR,0.00,WeatherDisplay:10.37,2013-08-13 14:17:00,
2013-08-13 10:22:00,83.5,81.6,29.88,North,0,0.0,0.0,94,0.00,CLR,CLR,0.00,WeatherDisplay:10.37,2013-08-13 14:22:00,
2013-08-13 10:27:00,83.1,81.2,29.88,North,0,0.0,0.0,94,0.00,CLR,CLR,0.00,WeatherDisplay:10.37,2013-08-13 14:27:00,
2013-08-13 10:32:00,83.1,80.9,29.88,North,0,0.0,0.0,93,0.00,CLR,CLR,0.00,WeatherDisplay:10.37,2013-08-13 14:32:00,
2013-08-13 10:37:00,83.1,81.2,29.88,North,0,0.0,0.0,94,0.00,CLR,CLR,0.00,WeatherDisplay:10.37,2013-08-13 14:37:00,
2013-08-13 10:42:00,83.5,81.6,29.91,North,0,0.0,0.0,94,0.00,CLR,CLR,0.00,WeatherDisplay:10.37,2013-08-13 14:42:00,
2013-08-13 10:47:00,83.5,81.2,29.91,North,0,0.0,0.0,93,0.00,CLR,CLR,0.00,WeatherDisplay:10.37,2013-08-13 14:47:00,
2013-08-13 10:52:00,84.2,82.0,29.91,North,0,0.0,0.0,93,0.00,CLR,CLR,0.00,WeatherDisplay:10.37,2013-08-13 14:52:00,
2013-08-13 10:57:00,84.4,82.1,29.91,North,0,0.0,0.0,93,0.00,CLR,CLR,0.00,WeatherDisplay:10.37,2013-08-13 14:57:00,
2013-08-13 11:03:00,84.0,82.1,29.91,North,0,0.0,0.0,94,0.00,CLR,CLR,0.00,WeatherDisplay:10.37,2013-08-13 15:03:00,
2013-08-13 11:08:00,84.2,82.0,29.91,North,0,0.0,0.0,93,0.00,CLR,CLR,0.00,WeatherDisplay:10.37,2013-08-13 15:08:00,
2013-08-13 11:13:00,83.5,81.6,29.91,North,0,0.0,0.0,94,0.00,CLR,CLR,0.00,WeatherDisplay:10.37,2013-08-13 15:13:00,
2013-08-13 11:18:00,83.3,81.4,29.91,North,0,0.0,0.0,94,0.00,CLR,CLR,0.00,WeatherDisplay:10.37,2013-08-13 15:18:00,
2013-08-13 11:23:00,83.8,81.9,29.91,North,0,0.0,0.0,94,0.00,CLR,CLR,0.00,WeatherDisplay:10.37,2013-08-13 15:23:00,
2013-08-13 11:28:00,83.7,81.7,29.88,North,0,0.0,0.0,94,0.00,CLR,CLR,0.00,WeatherDisplay:10.37,2013-08-13 15:28:00,
2013-08-13 11:33:00,83.3,81.4,29.88,North,0,0.0,0.0,94,0.00,CLR,CLR,0.00,WeatherDisplay:10.37,2013-08-13 15:33:00,
2013-08-13 11:38:00,84.2,82.3,29.88,North,0,0.0,0.0,94,0.00,CLR,CLR,0.00,WeatherDisplay:10.37,2013-08-13 15:38:00,
2013-08-13 11:41:00,84.4,82.5,29.91,North,0,0.0,0.0,94,0.00,CLR,CLR,0.00,WeatherDisplay:10.37,2013-08-13 15:41:00,
2013-08-13 11:46:00,84.9,83.0,29.91,North,0,0.0,0.0,94,0.00,CLR,CLR,0.00,WeatherDisplay:10.37,2013-08-13 15:46:00,
2013-08-13 11:51:00,85.5,83.5,29.91,North,0,0.0,0.0,94,0.00,CLR,CLR,0.00,WeatherDisplay:10.37,2013-08-13 15:51:00,
2013-08-13 11:56:00,85.5,83.5,29.88,North,0,0.0,0.0,94,0.00,CLR,CLR,0.00,WeatherDisplay:10.37,2013-08-13 15:56:00,
2013-08-13 12:01:00,85.5,85.5,29.88,North,0,0.0,0.0,100,0.00,CLR,CLR,0.00,WeatherDisplay:10.37,2013-08-13 16:01:00,
2013-08-13 12:06:00,85.6,83.7,29.88,North,0,0.0,0.0,94,0.00,CLR,CLR,0.00,WeatherDisplay:10.37,2013-08-13 16:06:00,
2013-08-13 12:11:00,85.6,83.7,29.88,North,0,0.0,0.0,94,0.00,CLR,CLR,0.00,WeatherDisplay:10.37,2013-08-13 16:11:00,
2013-08-13 12:17:00,85.5,83.5,29.88,North,0,0.0,0.0,94,0.00,CLR,CLR,0.00,WeatherDisplay:10.37,2013-08-13 16:17:00,
2013-08-13 12:22:00,86.0,83.7,29.88,North,0,0.0,0.0,93,0.00,CLR,CLR,0.00,WeatherDisplay:10.37,2013-08-13 16:22:00,
2013-08-13 12:27:00,86.2,83.9,29.88,North,0,0.0,0.0,93,0.00,CLR,CLR,0.00,WeatherDisplay:10.37,2013-08-13 16:27:00,
2013-08-13 12:32:00,86.0,83.7,29.88,North,0,0.0,0.0,93,0.00,CLR,CLR,0.00,WeatherDisplay:10.37,2013-08-13 16:32:00,
2013-08-13 12:37:00,85.8,83.6,29.88,North,0,0.0,0.0,93,0.00,CLR,CLR,0.00,WeatherDisplay:10.37,2013-08-13 16:37:00,
2013-08-13 12:42:00,86.0,83.7,29.88,North,0,0.0,0.0,93,0.00,CLR,CLR,0.00,WeatherDisplay:10.37,2013-08-13 16:42:00,
2013-08-13 12:47:00,86.4,84.1,29.88,North,0,0.0,0.0,93,0.00,CLR,CLR,0.00,WeatherDisplay:10.37,2013-08-13 16:47:00,
2013-08-13 12:52:00,86.9,84.6,29.88,North,0,0.0,0.0,93,0.00,CLR,CLR,0.00,WeatherDisplay:10.37,2013-08-13 16:52:00,
2013-08-13 12:58:00,86.5,84.3,29.88,North,0,0.0,0.0,93,0.00,CLR,CLR,0.00,WeatherDisplay:10.37,2013-08-13 16:58:00,
2013-08-13 13:03:00,87.1,84.5,29.88,North,0,0.0,0.0,92,0.00,CLR,CLR,0.00,WeatherDisplay:10.37,2013-08-13 17:03:00,
2013-08-13 13:08:00,87.3,84.6,29.88,North,0,0.0,0.0,92,0.00,CLR,CLR,0.00,WeatherDisplay:10.37,2013-08-13 17:08:00,
2013-08-13 13:13:00,87.3,84.6,29.88,North,0,0.0,0.0,92,0.00,CLR,CLR,0.00,WeatherDisplay:10.37,2013-08-13 17:13:00,
2013-08-13 13:18:00,87.6,85.0,29.88,North,0,0.0,0.0,92,0.00,CLR,CLR,0.00,WeatherDisplay:10.37,2013-08-13 17:18:00,
2013-08-13 13:23:00,87.6,84.7,29.85,North,0,0.0,0.0,91,0.00,CLR,CLR,0.00,WeatherDisplay:10.37,2013-08-13 17:23:00,
2013-08-13 13:29:00,87.6,84.7,29.85,North,0,0.0,0.0,91,0.00,CLR,CLR,0.00,WeatherDisplay:10.37,2013-08-13 17:29:00,
2013-08-13 13:34:00,87.8,83.8,29.85,North,0,0.0,0.0,88,0.00,CLR,CLR,0.00,WeatherDisplay:10.37,2013-08-13 17:34:00,
2013-08-13 13:39:00,88.2,84.2,29.85,North,0,0.0,0.0,88,0.00,CLR,CLR,0.00,WeatherDisplay:10.37,2013-08-13 17:39:00,
2013-08-13 13:44:00,87.8,83.1,29.85,North,0,0.0,0.0,86,0.00,CLR,CLR,0.00,WeatherDisplay:10.37,2013-08-13 17:44:00,
2013-08-13 13:50:00,88.2,83.4,29.85,North,0,0.0,0.0,86,0.00,CLR,CLR,0.00,WeatherDisplay:10.37,2013-08-13 17:50:00,
2013-08-13 13:55:00,88.5,84.2,29.85,North,0,0.0,0.0,87,0.00,CLR,CLR,0.00,WeatherDisplay:10.37,2013-08-13 17:55:00,
2013-08-13 14:00:00,88.7,84.3,29.85,North,0,0.0,0.0,87,0.00,CLR,CLR,0.00,WeatherDisplay:10.37,2013-08-13 18:00:00,
2013-08-13 14:05:00,88.9,83.8,29.85,North,0,0.0,0.0,85,0.00,CLR,CLR,0.00,WeatherDisplay:10.37,2013-08-13 18:05:00,
2013-08-13 14:10:00,88.9,83.8,29.85,North,0,0.0,0.0,85,0.00,CLR,CLR,0.00,WeatherDisplay:10.37,2013-08-13 18:10:00,
2013-08-13 14:15:00,88.7,83.2,29.85,North,0,0.0,0.0,84,0.00,CLR,CLR,0.00,WeatherDisplay:10.37,2013-08-13 18:15:00,
2013-08-13 14:20:00,88.3,82.5,29.85,North,0,0.0,0.0,83,0.00,CLR,CLR,0.00,WeatherDisplay:10.37,2013-08-13 18:20:00,
2013-08-13 14:26:00,88.2,82.3,29.85,North,0,0.0,0.0,83,0.00,CLR,CLR,0.00,WeatherDisplay:10.37,2013-08-13 18:26:00,
2013-08-13 14:31:00,88.5,82.7,29.85,North,0,0.0,0.0,83,0.00,CLR,CLR,0.00,WeatherDisplay:10.37,2013-08-13 18:31:00,
2013-08-13 14:36:00,88.5,82.3,29.85,North,0,0.0,0.0,82,0.00,CLR,CLR,0.00,WeatherDisplay:10.37,2013-08-13 18:36:00,
2013-08-13 14:41:00,89.2,83.0,29.85,North,0,0.0,0.0,82,0.00,CLR,CLR,0.00,WeatherDisplay:10.37,2013-08-13 18:41:00,
2013-08-13 14:46:00,88.7,82.1,29.85,North,0,0.0,0.0,81,0.00,CLR,CLR,0.00,WeatherDisplay:10.37,2013-08-13 18:46:00,
2013-08-13 14:51:00,88.9,83.0,29.85,North,0,0.0,0.0,83,0.00,CLR,CLR,0.00,WeatherDisplay:10.37,2013-08-13 18:51:00,
2013-08-13 14:56:00,88.2,82.0,29.83,North,0,0.0,0.0,82,0.00,CLR,CLR,0.00,WeatherDisplay:10.37,2013-08-13 18:56:00,
2013-08-13 15:01:00,87.8,81.6,29.83,North,0,0.0,0.0,82,0.00,CLR,CLR,0.00,WeatherDisplay:10.37,2013-08-13 19:01:00,
2013-08-13 15:06:00,87.6,81.4,29.83,North,0,0.0,0.0,82,0.00,CLR,CLR,0.00,WeatherDisplay:10.37,2013-08-13 19:06:00,
2013-08-13 15:12:00,87.4,81.6,29.83,North,0,0.0,0.0,83,0.00,CLR,CLR,0.00,WeatherDisplay:10.37,2013-08-13 19:12:00,
2013-08-13 15:17:00,87.8,82.0,29.83,North,0,0.0,0.0,83,0.00,CLR,CLR,0.00,WeatherDisplay:10.37,2013-08-13 19:17:00,
2013-08-13 15:22:00,87.4,81.3,29.83,North,0,0.0,0.0,82,0.00,CLR,CLR,0.00,WeatherDisplay:10.37,2013-08-13 19:22:00,
2013-08-13 15:27:00,87.6,81.8,29.83,North,0,0.0,0.0,83,0.00,CLR,CLR,0.00,WeatherDisplay:10.37,2013-08-13 19:27:00,
2013-08-13 15:32:00,88.0,81.8,29.83,North,0,0.0,0.0,82,0.00,CLR,CLR,0.00,WeatherDisplay:10.37,2013-08-13 19:32:00,
2013-08-13 15:37:00,87.8,81.6,29.83,North,0,0.0,0.0,82,0.00,CLR,CLR,0.00,WeatherDisplay:10.37,2013-08-13 19:37:00,
2013-08-13 15:42:00,88.2,82.3,29.83,North,0,0.0,0.0,83,0.00,CLR,CLR,0.00,WeatherDisplay:10.37,2013-08-13 19:42:00,
2013-08-13 15:48:00,87.8,81.6,29.83,North,0,0.0,0.0,82,0.00,CLR,CLR,0.00,WeatherDisplay:10.37,2013-08-13 19:48:00,
2013-08-13 15:53:00,86.5,81.1,29.83,North,0,0.0,0.0,84,0.00,CLR,CLR,0.00,WeatherDisplay:10.37,2013-08-13 19:53:00,
2013-08-13 15:58:00,85.1,79.7,29.83,North,0,0.0,0.0,84,0.00,CLR,CLR,0.00,WeatherDisplay:10.37,2013-08-13 19:58:00,
2013-08-13 16:03:00,84.6,79.5,29.83,North,0,0.0,0.0,85,0.00,CLR,CLR,0.00,WeatherDisplay:10.37,2013-08-13 20:03:00,
2013-08-13 16:08:00,84.2,79.6,29.83,North,0,0.0,0.0,86,0.00,CLR,CLR,0.00,WeatherDisplay:10.37,2013-08-13 20:08:00,
2013-08-13 16:14:00,84.7,80.1,29.83,North,0,0.0,0.0,86,0.00,CLR,CLR,0.00,WeatherDisplay:10.37,2013-08-13 20:14:00,
2013-08-13 16:19:00,85.5,80.8,29.83,North,0,0.0,0.0,86,0.00,CLR,CLR,0.00,WeatherDisplay:10.37,2013-08-13 20:19:00,
2013-08-13 16:24:00,86.2,81.1,29.80,North,0,0.0,0.0,85,0.00,CLR,CLR,0.00,WeatherDisplay:10.37,2013-08-13 20:24:00,
2013-08-13 16:29:00,87.8,82.4,29.80,North,0,0.0,0.0,84,0.00,CLR,CLR,0.00,WeatherDisplay:10.37,2013-08-13 20:29:00,
2013-08-13 16:34:00,87.6,81.8,29.80,North,0,0.0,0.0,83,0.00,CLR,CLR,0.00,WeatherDisplay:10.37,2013-08-13 20:34:00,
2013-08-13 16:39:00,87.6,82.2,29.83,North,0,0.0,0.0,84,0.00,CLR,CLR,0.00,WeatherDisplay:10.37,2013-08-13 20:39:00,
2013-08-13 16:45:00,87.1,81.7,29.83,North,0,0.0,0.0,84,0.00,CLR,CLR,0.00,WeatherDisplay:10.37,2013-08-13 20:45:00,
2013-08-13 16:50:00,87.6,82.2,29.83,North,0,0.0,0.0,84,0.00,CLR,CLR,0.00,WeatherDisplay:10.37,2013-08-13 20:50:00,
2013-08-13 16:55:00,87.8,82.0,29.80,North,0,0.0,0.0,83,0.00,CLR,CLR,0.00,WeatherDisplay:10.37,2013-08-13 20:55:00,
2013-08-13 17:00:00,87.6,81.8,29.80,North,0,0.0,0.0,83,0.00,CLR,CLR,0.00,WeatherDisplay:10.37,2013-08-13 21:00:00,
2013-08-13 17:05:00,87.6,81.4,29.80,North,0,0.0,0.0,82,0.00,CLR,CLR,0.00,WeatherDisplay:10.37,2013-08-13 21:05:00,
2013-08-13 17:10:00,87.4,81.6,29.80,North,0,0.0,0.0,83,0.00,CLR,CLR,0.00,WeatherDisplay:10.37,2013-08-13 21:10:00,
2013-08-13 17:15:00,87.8,82.0,29.80,North,0,0.0,0.0,83,0.00,CLR,CLR,0.00,WeatherDisplay:10.37,2013-08-13 21:15:00,
2013-08-13 17:20:00,87.1,80.9,29.80,North,0,0.0,0.0,82,0.00,CLR,CLR,0.00,WeatherDisplay:10.37,2013-08-13 21:20:00,
2013-08-13 17:25:00,86.5,80.8,29.80,North,0,0.0,0.0,83,0.00,CLR,CLR,0.00,WeatherDisplay:10.37,2013-08-13 21:25:00,
2013-08-13 17:30:00,86.9,81.1,29.80,North,0,0.0,0.0,83,0.00,CLR,CLR,0.00,WeatherDisplay:10.37,2013-08-13 21:30:00,
2013-08-13 17:35:00,86.5,80.8,29.80,North,0,0.0,0.0,83,0.00,CLR,CLR,0.00,WeatherDisplay:10.37,2013-08-13 21:35:00,
2013-08-13 17:41:00,86.0,80.6,29.80,North,0,0.0,0.0,84,0.00,CLR,CLR,0.00,WeatherDisplay:10.37,2013-08-13 21:41:00,
2013-08-13 17:46:00,85.1,80.1,29.80,North,0,0.0,0.0,85,0.00,CLR,CLR,0.00,WeatherDisplay:10.37,2013-08-13 21:46:00,
2013-08-13 17:51:00,84.4,79.7,29.80,North,0,0.0,0.0,86,0.00,CLR,CLR,0.00,WeatherDisplay:10.37,2013-08-13 21:51:00,
2013-08-13 17:56:00,83.8,79.6,29.80,North,0,0.0,0.0,87,0.00,CLR,CLR,0.00,WeatherDisplay:10.37,2013-08-13 21:56:00,
2013-08-13 18:01:00,83.7,79.7,29.80,North,0,0.0,0.0,88,0.00,CLR,CLR,0.00,WeatherDisplay:10.37,2013-08-13 22:01:00,
2013-08-13 18:06:00,83.5,79.5,29.80,North,0,0.0,0.0,88,0.00,CLR,CLR,0.00,WeatherDisplay:10.37,2013-08-13 22:06:00,
2013-08-13 18:11:00,83.5,79.5,29.80,North,0,0.0,0.0,88,0.00,CLR,CLR,0.00,WeatherDisplay:10.37,2013-08-13 22:11:00,
2013-08-13 18:16:00,83.3,79.7,29.80,North,0,0.0,0.0,89,0.00,CLR,CLR,0.00,WeatherDisplay:10.37,2013-08-13 22:16:00,
2013-08-13 18:22:00,83.3,79.7,29.80,North,0,0.0,0.0,89,0.00,CLR,CLR,0.00,WeatherDisplay:10.37,2013-08-13 22:22:00,
2013-08-13 18:27:00,83.1,79.5,29.77,North,0,0.0,0.0,89,0.00,CLR,CLR,0.00,WeatherDisplay:10.37,2013-08-13 22:27:00,
2013-08-13 18:32:00,83.1,79.9,29.77,North,0,0.0,0.0,90,0.00,CLR,CLR,0.00,WeatherDisplay:10.37,2013-08-13 22:32:00,
2013-08-13 18:37:00,83.1,79.9,29.77,North,0,0.0,0.0,90,0.00,CLR,CLR,0.00,WeatherDisplay:10.37,2013-08-13 22:37:00,
2013-08-13 18:42:00,83.1,79.9,29.80,North,0,0.0,0.0,90,0.00,CLR,CLR,0.00,WeatherDisplay:10.37,2013-08-13 22:42:00,
2013-08-13 18:47:00,83.1,79.9,29.80,North,0,0.0,0.0,90,0.00,CLR,CLR,0.00,WeatherDisplay:10.37,2013-08-13 22:47:00,
2013-08-13 18:53:00,82.9,79.7,29.80,North,0,0.0,0.0,90,0.00,CLR,CLR,0.00,WeatherDisplay:10.37,2013-08-13 22:53:00,
2013-08-13 18:58:00,82.9,80.0,29.80,North,0,0.0,0.0,91,0.00,CLR,CLR,0.00,WeatherDisplay:10.37,2013-08-13 22:58:00,
2013-08-13 19:03:00,82.9,80.0,29.80,North,0,0.0,0.0,91,0.00,CLR,CLR,0.00,WeatherDisplay:10.37,2013-08-13 23:03:00,
2013-08-13 19:08:00,82.9,80.0,29.80,North,0,0.0,0.0,91,0.00,CLR,CLR,0.00,WeatherDisplay:10.37,2013-08-13 23:08:00,
2013-08-13 19:13:00,82.8,79.9,29.80,North,0,0.0,0.0,91,0.00,CLR,CLR,0.00,WeatherDisplay:10.37,2013-08-13 23:13:00,
2013-08-13 19:18:00,82.6,79.7,29.80,North,0,0.0,0.0,91,0.00,CLR,CLR,0.00,WeatherDisplay:10.37,2013-08-13 23:18:00,
2013-08-13 19:24:00,82.6,79.7,29.80,North,0,0.0,0.0,91,0.00,CLR,CLR,0.00,WeatherDisplay:10.37,2013-08-13 23:24:00,
2013-08-13 19:29:00,82.4,79.5,29.80,North,0,0.0,0.0,91,0.00,CLR,CLR,0.00,WeatherDisplay:10.37,2013-08-13 23:29:00,
2013-08-13 19:34:00,82.4,79.5,29.80,North,0,0.0,0.0,91,0.00,CLR,CLR,0.00,WeatherDisplay:10.37,2013-08-13 23:34:00,
2013-08-13 19:39:00,82.2,79.7,29.80,North,0,0.0,0.0,92,0.00,CLR,CLR,0.00,WeatherDisplay:10.37,2013-08-13 23:39:00,
2013-08-13 19:44:00,82.2,79.7,29.80,North,0,0.0,0.0,92,0.00,CLR,CLR,0.00,WeatherDisplay:10.37,2013-08-13 23:44:00,
2013-08-13 19:50:00,82.2,79.7,29.80,North,0,0.0,0.0,92,0.00,CLR,CLR,0.00,WeatherDisplay:10.37,2013-08-13 23:50:00,
2013-08-13 19:55:00,82.0,79.5,29.80,North,0,0.0,0.0,92,0.00,CLR,CLR,0.00,WeatherDisplay:10.37,2013-08-13 23:55:00,
2013-08-13 20:00:00,82.0,79.5,29.80,North,0,0.0,0.0,92,0.00,CLR,CLR,0.00,WeatherDisplay:10.37,2013-08-14 00:00:00,
2013-08-13 20:05:00,82.0,79.5,29.80,North,0,0.0,0.0,92,0.00,CLR,CLR,0.00,WeatherDisplay:10.37,2013-08-14 00:05:00,
2013-08-13 20:10:00,82.0,79.5,29.80,North,0,0.0,0.0,92,0.00,CLR,CLR,0.00,WeatherDisplay:10.37,2013-08-14 00:10:00,
2013-08-13 20:16:00,81.9,79.3,29.80,North,0,0.0,0.0,92,0.00,CLR,CLR,0.00,WeatherDisplay:10.37,2013-08-14 00:16:00,
2013-08-13 20:21:00,81.9,79.3,29.80,North,0,0.0,0.0,92,0.00,CLR,CLR,0.00,WeatherDisplay:10.37,2013-08-14 00:21:00,
2013-08-13 20:26:00,81.7,79.1,29.80,North,0,0.0,0.0,92,0.00,CLR,CLR,0.00,WeatherDisplay:10.37,2013-08-14 00:26:00,
2013-08-13 20:31:00,81.5,78.3,29.80,North,0,0.0,0.0,90,0.00,CLR,CLR,0.00,WeatherDisplay:10.37,2013-08-14 00:31:00,
2013-08-13 20:36:00,81.5,78.6,29.80,North,0,0.0,0.0,91,0.00,CLR,CLR,0.00,WeatherDisplay:10.37,2013-08-14 00:36:00,
2013-08-13 20:41:00,81.5,78.6,29.80,North,0,0.0,0.0,91,0.00,CLR,CLR,0.00,WeatherDisplay:10.37,2013-08-14 00:41:00,
2013-08-13 20:46:00,81.7,79.1,29.80,North,0,0.0,0.0,92,0.00,CLR,CLR,0.00,WeatherDisplay:10.37,2013-08-14 00:46:00,
2013-08-13 20:52:00,81.7,79.1,29.80,North,0,0.0,0.0,92,0.00,CLR,CLR,0.00,WeatherDisplay:10.37,2013-08-14 00:52:00,
2013-08-13 20:57:00,81.9,79.3,29.80,North,0,0.0,0.0,92,0.00,CLR,CLR,0.00,WeatherDisplay:10.37,2013-08-14 00:57:00,
2013-08-13 21:02:00,81.7,79.1,29.80,North,0,0.0,0.0,92,0.00,CLR,CLR,0.00,WeatherDisplay:10.37,2013-08-14 01:02:00,
2013-08-13 21:07:00,81.7,79.5,29.80,North,0,0.0,0.0,93,0.00,CLR,CLR,0.00,WeatherDisplay:10.37,2013-08-14 01:07:00,
2013-08-13 21:12:00,81.7,79.5,29.80,North,0,0.0,0.0,93,0.00,CLR,CLR,0.00,WeatherDisplay:10.37,2013-08-14 01:12:00,
2013-08-13 21:18:00,81.7,79.5,29.80,North,0,0.0,0.0,93,0.00,CLR,CLR,0.00,WeatherDisplay:10.37,2013-08-14 01:18:00,
2013-08-13 21:23:00,81.7,79.5,29.80,North,0,0.0,0.0,93,0.00,CLR,CLR,0.00,WeatherDisplay:10.37,2013-08-14 01:23:00,
2013-08-13 21:28:00,81.7,79.5,29.80,North,0,0.0,0.0,93,0.00,CLR,CLR,0.00,WeatherDisplay:10.37,2013-08-14 01:28:00,
2013-08-13 21:33:00,81.7,79.5,29.80,North,0,0.0,0.0,93,0.00,CLR,CLR,0.00,WeatherDisplay:10.37,2013-08-14 01:33:00,
2013-08-13 21:38:00,81.9,79.6,29.83,North,0,0.0,0.0,93,0.00,CLR,CLR,0.00,WeatherDisplay:10.37,2013-08-14 01:38:00,
2013-08-13 21:43:00,81.9,79.6,29.83,North,0,0.0,0.0,93,0.00,CLR,CLR,0.00,WeatherDisplay:10.37,2013-08-14 01:43:00,
2013-08-13 21:49:00,81.9,79.6,29.83,North,0,0.0,0.0,93,0.00,CLR,CLR,0.00,WeatherDisplay:10.37,2013-08-14 01:49:00,
2013-08-13 21:54:00,81.9,79.6,29.83,North,0,0.0,0.0,93,0.00,CLR,CLR,0.00,WeatherDisplay:10.37,2013-08-14 01:54:00,
2013-08-13 21:59:00,81.9,79.6,29.83,North,0,0.0,0.0,93,0.00,CLR,CLR,0.00,WeatherDisplay:10.37,2013-08-14 01:59:00,
2013-08-13 22:04:00,81.1,79.2,29.83,North,0,0.0,0.0,94,0.00,CLR,CLR,0.00,WeatherDisplay:10.37,2013-08-14 02:04:00,
2013-08-13 22:09:00,81.0,79.1,29.83,North,0,0.0,0.0,94,0.00,CLR,CLR,0.00,WeatherDisplay:10.37,2013-08-14 02:09:00,
2013-08-13 22:14:00,81.0,79.1,29.83,North,0,0.0,0.0,94,0.00,CLR,CLR,0.00,WeatherDisplay:10.37,2013-08-14 02:14:00,
2013-08-13 22:20:00,80.8,78.9,29.83,North,0,0.0,0.0,94,0.00,CLR,CLR,0.00,WeatherDisplay:10.37,2013-08-14 02:20:00,
2013-08-13 22:25:00,80.8,79.2,29.83,North,0,0.0,0.0,95,0.00,CLR,CLR,0.00,WeatherDisplay:10.37,2013-08-14 02:25:00,
2013-08-13 22:30:00,80.8,79.2,29.83,North,0,0.0,0.0,95,0.00,CLR,CLR,0.00,WeatherDisplay:10.37,2013-08-14 02:30:00,
2013-08-13 22:35:00,80.8,79.2,29.83,North,0,0.0,0.0,95,0.00,CLR,CLR,0.00,WeatherDisplay:10.37,2013-08-14 02:35:00,
2013-08-13 22:40:00,80.8,79.2,29.80,North,0,0.0,0.0,95,0.00,CLR,CLR,0.00,WeatherDisplay:10.37,2013-08-14 02:40:00,
2013-08-13 22:45:00,80.8,79.2,29.80,North,0,0.0,0.0,95,0.00,CLR,CLR,0.00,WeatherDisplay:10.37,2013-08-14 02:45:00,
2013-08-13 22:50:00,80.8,79.2,29.80,North,0,0.0,0.0,95,0.00,CLR,CLR,0.00,WeatherDisplay:10.37,2013-08-14 02:50:00,
2013-08-13 22:55:00,80.8,79.2,29.80,North,0,0.0,0.0,95,0.00,CLR,CLR,0.00,WeatherDisplay:10.37,2013-08-14 02:55:00,
2013-08-13 23:00:00,80.8,79.2,29.80,North,0,0.0,0.0,95,0.00,CLR,CLR,0.00,WeatherDisplay:10.37,2013-08-14 03:00:00,
2013-08-13 23:05:00,80.8,79.2,29.80,North,0,0.0,0.0,95,0.00,CLR,CLR,0.00,WeatherDisplay:10.37,2013-08-14 03:05:00,
2013-08-13 23:11:00,80.8,79.2,29.80,North,0,0.0,0.0,95,0.00,CLR,CLR,0.00,WeatherDisplay:10.37,2013-08-14 03:11:00,
2013-08-13 23:16:00,80.6,79.0,29.80,North,0,0.0,0.0,95,0.00,CLR,CLR,0.00,WeatherDisplay:10.37,2013-08-14 03:16:00,
2013-08-13 23:21:00,80.8,79.2,29.80,North,0,0.0,0.0,95,0.00,CLR,CLR,0.00,WeatherDisplay:10.37,2013-08-14 03:21:00,
2013-08-13 23:26:00,80.8,79.2,29.83,North,0,0.0,0.0,95,0.00,CLR,CLR,0.00,WeatherDisplay:10.37,2013-08-14 03:26:00,
2013-08-13 23:31:00,80.8,79.2,29.83,North,0,0.0,0.0,95,0.00,CLR,CLR,0.00,WeatherDisplay:10.37,2013-08-14 03:31:00,
2013-08-13 23:36:00,80.8,79.2,29.83,North,0,0.0,0.0,95,0.00,CLR,CLR,0.00,WeatherDisplay:10.37,2013-08-14 03:36:00,
2013-08-13 23:42:00,80.8,79.2,29.83,North,0,0.0,0.0,95,0.00,CLR,CLR,0.00,WeatherDisplay:10.37,2013-08-14 03:42:00,
2013-08-13 23:47:00,80.8,79.2,29.83,North,0,0.0,0.0,95,0.00,CLR,CLR,0.00,WeatherDisplay:10.37,2013-08-14 03:47:00,
2013-08-13 23:52:00,80.8,79.2,29.83,North,0,0.0,0.0,95,0.00,CLR,CLR,0.00,WeatherDisplay:10.37,2013-08-14 03:52:00,
2013-08-13 23:57:00,80.8,79.2,29.80,North,0,0.0,0.0,95,0.00,CLR,CLR,0.00,WeatherDisplay:10.37,2013-08-14 03:57:00,